Alma, Missouri
Current Conditions -  °F | °C
As of 3:35 PM on Tuesday 25 Nov 2014 (Local Time) from KMHL Reporting Station
Clear Clear  
Wind Chill:   Ceiling: Unl
Heat Index:   Visibility: 10mi
Dew Point: -8°   Wind: 6mph
Humidity: 39%   Direction: 250°WSW
Pressure: 30.16"   Gusts: NA
Location:  39.1°N, 93.55°W
Report Text: KMHL 252135Z AUTO 25005KT 10SM CLR 05/M08 A3016 RMK AO2
Loading
Personal Weather Stations






























Interactive Weather Map New forecast layout! Learn more

10-Day Weather Forecast

Advertisements
Track Severe Weather on mobile